createdAt,value
2018-09-12T00:02:32.105Z,98788.19
2018-09-12T00:05:04.536Z,98789.95
2018-09-12T00:07:36.785Z,98785.99
2018-09-12T00:10:09.145Z,98782.64
2018-09-12T00:12:41.412Z,98785.52
2018-09-12T00:15:13.920Z,98780.63
2018-09-12T00:17:46.225Z,98778.53
2018-09-12T00:20:18.594Z,98772.75
2018-09-12T00:22:50.845Z,98775.16
2018-09-12T00:25:23.172Z,98764.55
2018-09-12T00:27:55.449Z,98761.98
2018-09-12T00:30:27.777Z,98762.61
2018-09-12T00:33:00.094Z,98757.14
2018-09-12T00:35:32.396Z,98761.58
2018-09-12T00:38:04.641Z,98751.02
2018-09-12T00:40:36.929Z,98753.97
2018-09-12T00:43:09.228Z,98756.39
2018-09-12T00:45:41.517Z,98753.91
2018-09-12T00:48:13.777Z,98756.39
2018-09-12T00:50:46.113Z,98755.52
2018-09-12T00:53:18.374Z,98747.79
2018-09-12T00:55:50.717Z,98755.45
2018-09-12T00:58:23.013Z,98748.92
2018-09-12T01:00:55.296Z,98750.71
2018-09-12T01:03:27.572Z,98747.16
2018-09-12T01:05:59.936Z,98743.36
2018-09-12T01:08:32.236Z,98739.80
2018-09-12T01:11:04.595Z,98735.41
2018-09-12T01:13:36.873Z,98737.33
2018-09-12T01:16:09.140Z,98736.28
2018-09-12T01:18:41.413Z,98736.76
2018-09-12T01:21:13.680Z,98735.25
2018-09-12T01:23:46.009Z,98738.95
2018-09-12T01:26:18.328Z,98740.72
2018-09-12T01:28:50.649Z,98740.71
2018-09-12T01:31:22.942Z,98732.92
2018-09-12T01:33:55.247Z,98734.61
2018-09-12T01:36:27.550Z,98725.75
2018-09-12T01:38:59.816Z,98720.28
2018-09-12T01:41:32.092Z,98714.88
2018-09-12T01:44:04.433Z,98716.23
2018-09-12T01:46:36.745Z,98707.94
2018-09-12T01:49:12.909Z,98711.48
2018-09-12T01:51:46.065Z,98710.20
2018-09-12T01:54:18.827Z,98712.46
2018-09-12T01:56:51.101Z,98700.63
2018-09-12T01:59:23.458Z,98705.13
2018-09-12T02:01:55.789Z,98701.91
2018-09-12T02:04:28.173Z,98701.98
2018-09-12T02:07:00.470Z,98704.48
2018-09-12T02:09:32.716Z,98697.55
2018-09-12T02:12:05.017Z,98696.52
2018-09-12T02:14:37.298Z,98698.78
2018-09-12T02:17:09.612Z,98697.56
2018-09-12T02:19:42.032Z,98695.79
2018-09-12T02:22:14.326Z,98690.90
2018-09-12T02:24:46.580Z,98692.41
2018-09-12T02:27:18.853Z,98691.94
2018-09-12T02:29:51.145Z,98693.48
2018-09-12T02:32:23.509Z,98686.86
2018-09-12T02:34:55.825Z,98691.38
2018-09-12T02:37:28.117Z,98689.61
2018-09-12T02:40:00.471Z,98689.98
2018-09-12T02:42:32.768Z,98690.49
2018-09-12T02:45:05.445Z,98689.52
2018-09-12T02:47:38.745Z,98689.66
2018-09-12T02:50:12.026Z,98688.22
2018-09-12T02:52:44.297Z,98690.94
2018-09-12T02:55:16.586Z,98684.52
2018-09-12T02:57:48.854Z,98683.87
2018-09-12T03:00:21.146Z,98684.25
2018-09-12T03:02:53.440Z,98686.42
2018-09-12T03:05:25.750Z,98685.95
2018-09-12T03:07:58.169Z,98681.03
2018-09-12T03:10:30.404Z,98683.44
2018-09-12T03:13:02.770Z,98675.31
2018-09-12T03:15:35.042Z,98685.10
2018-09-12T03:18:07.366Z,98680.20
2018-09-12T03:20:39.688Z,98678.98
2018-09-12T03:23:11.908Z,98672.92
2018-09-12T03:25:44.145Z,98670.35
2018-09-12T03:28:16.454Z,98671.16
2018-09-12T03:30:48.712Z,98672.38
2018-09-12T03:33:21.262Z,98669.17
2018-09-12T03:35:53.576Z,98672.62
2018-09-12T03:38:25.852Z,98668.13
2018-09-12T03:40:58.176Z,98659.36
2018-09-12T03:43:30.442Z,98661.35
2018-09-12T03:46:02.796Z,98658.95
2018-09-12T03:48:35.034Z,98665.52
2018-09-12T03:51:07.358Z,98663.92
2018-09-12T03:53:39.621Z,98666.13
2018-09-12T03:56:11.883Z,98669.56
2018-09-12T03:58:44.175Z,98671.20
2018-09-12T04:01:16.512Z,98666.13
2018-09-12T04:03:48.817Z,98670.55
2018-09-12T04:06:21.496Z,98669.40
2018-09-12T04:08:53.793Z,98662.33
2018-09-12T04:11:26.125Z,98662.63
2018-09-12T04:13:58.529Z,98663.58
2018-09-12T04:16:30.867Z,98656.03
2018-09-12T04:19:03.167Z,98651.77
2018-09-12T04:21:35.488Z,98654.64
2018-09-12T04:24:07.880Z,98649.20
2018-09-12T04:26:40.168Z,98650.69
2018-09-12T04:29:12.439Z,98645.78
2018-09-12T04:31:44.774Z,98648.52
2018-09-12T04:34:17.076Z,98652.48
2018-09-12T04:36:49.357Z,98649.61
2018-09-12T04:39:21.663Z,98649.50
2018-09-12T04:41:54.016Z,98649.03
2018-09-12T04:44:26.384Z,98649.38
2018-09-12T04:46:58.732Z,98652.89
2018-09-12T04:49:31.089Z,98652.89
2018-09-12T04:52:03.436Z,98658.97
2018-09-12T04:54:35.840Z,98657.69
2018-09-12T04:57:08.136Z,98657.25
2018-09-12T04:59:40.546Z,98657.25
2018-09-12T05:02:12.787Z,98660.98
2018-09-12T05:04:45.126Z,98661.75
2018-09-12T05:07:17.394Z,98658.55
2018-09-12T05:09:49.694Z,98655.12
2018-09-12T05:12:22.051Z,98661.89
2018-09-12T05:14:54.357Z,98662.27
2018-09-12T05:17:26.687Z,98659.02
2018-09-12T05:19:59.025Z,98662.22
2018-09-12T05:22:31.316Z,98656.38
2018-09-12T05:25:03.773Z,98660.27
2018-09-12T05:27:43.025Z,98660.88
2018-09-12T05:30:15.352Z,98662.05
2018-09-12T05:32:47.661Z,98660.59
2018-09-12T05:35:19.950Z,98665.38
2018-09-12T05:37:52.260Z,98665.56
2018-09-12T05:40:24.573Z,98669.20
2018-09-12T05:42:56.868Z,98665.36
2018-09-12T05:45:29.149Z,98667.10
2018-09-12T05:48:01.469Z,98666.19
2018-09-12T05:50:33.762Z,98669.67
2018-09-12T05:53:06.101Z,98660.90
2018-09-12T05:55:38.365Z,98656.61
2018-09-12T05:58:10.676Z,98661.81
2018-09-12T06:00:43.035Z,98657.45
2018-09-12T06:03:15.389Z,98658.46
2018-09-12T06:05:47.805Z,98658.96
2018-09-12T06:08:20.167Z,98665.03
2018-09-12T06:10:52.440Z,98666.22
2018-09-12T06:13:24.736Z,98661.34
2018-09-12T06:15:57.020Z,98661.95
2018-09-12T06:18:29.417Z,98657.61
2018-09-12T06:21:01.820Z,98652.95
2018-09-12T06:23:34.101Z,98650.66
2018-09-12T06:26:06.396Z,98645.45
2018-09-12T06:28:38.733Z,98636.82
2018-09-12T06:31:10.973Z,98641.98
2018-09-12T06:33:43.318Z,98640.05
2018-09-12T06:36:15.613Z,98638.23
2018-09-12T06:38:47.943Z,98644.21
2018-09-12T06:41:20.284Z,98633.95
2018-09-12T06:43:52.540Z,98632.23
2018-09-12T06:46:24.824Z,98645.09
2018-09-12T06:48:57.089Z,98641.66
2018-09-12T06:51:29.392Z,98629.36
2018-09-12T06:54:01.740Z,98628.50
2018-09-12T06:56:34.098Z,98627.88
2018-09-12T06:59:06.410Z,98632.98
2018-09-12T07:01:38.729Z,98631.58
2018-09-12T07:04:11.020Z,98634.03
2018-09-12T07:06:43.269Z,98636.94
2018-09-12T07:09:15.581Z,98635.44
2018-09-12T07:11:48.007Z,98634.52
2018-09-12T07:14:29.929Z,98630.06
2018-09-12T07:17:02.330Z,98628.03
2018-09-12T07:19:34.701Z,98628.09
2018-09-12T07:22:06.966Z,98630.26
2018-09-12T07:24:39.251Z,98628.77
2018-09-12T07:27:11.501Z,98630.13
2018-09-12T07:29:43.757Z,98629.65
2018-09-12T07:32:16.010Z,98632.62
2018-09-12T07:34:48.229Z,98625.84
2018-09-12T07:37:20.520Z,98632.69
2018-09-12T07:39:52.752Z,98631.95
2018-09-12T07:42:25.012Z,98633.02
2018-09-12T07:44:57.229Z,98633.32
2018-09-12T07:47:29.492Z,98632.19
2018-09-12T07:50:01.722Z,98632.71
2018-09-12T07:52:34.011Z,98633.89
2018-09-12T07:55:06.532Z,98635.27
2018-09-12T07:57:38.762Z,98635.06
2018-09-12T08:00:11.101Z,98639.64
2018-09-12T08:02:43.303Z,98639.47
2018-09-12T08:05:15.645Z,98647.35
2018-09-12T08:07:47.864Z,98643.70
2018-09-12T08:10:20.101Z,98648.09
2018-09-12T08:12:52.428Z,98648.19
2018-09-12T08:15:24.724Z,98647.37
2018-09-12T08:17:57.005Z,98650.97
2018-09-12T08:20:29.277Z,98644.58
2018-09-12T08:23:01.560Z,98640.37
2018-09-12T08:25:33.848Z,98635.17
2018-09-12T08:28:06.110Z,98633.50
2018-09-12T08:30:38.377Z,98634.06
2018-09-12T08:33:10.781Z,98632.44
2018-09-12T08:35:42.970Z,98628.95
2018-09-12T08:38:15.300Z,98636.83
2018-09-12T08:40:47.510Z,98628.48
2018-09-12T08:43:19.793Z,98628.11
2018-09-12T08:45:52.020Z,98628.61
2018-09-12T08:48:24.370Z,98622.58
2018-09-12T08:50:56.635Z,98619.59
2018-09-12T08:53:28.871Z,98622.69
2018-09-12T08:56:01.152Z,98613.94
2018-09-12T08:58:33.438Z,98612.66
2018-09-12T09:01:05.747Z,98614.41
2018-09-12T09:03:37.996Z,98611.36
2018-09-12T09:06:10.345Z,98616.61
2018-09-12T09:08:42.661Z,98616.63
2018-09-12T09:11:14.973Z,98609.62
2018-09-12T09:13:47.287Z,98610.05
2018-09-12T09:16:19.552Z,98613.11
2018-09-12T09:18:51.809Z,98608.70
2018-09-12T09:21:24.113Z,98605.63
2018-09-12T09:23:56.398Z,98603.84
2018-09-12T09:26:28.735Z,98606.44
2018-09-12T09:29:00.989Z,98599.32
2018-09-12T09:31:33.333Z,98600.66
2018-09-12T09:34:05.677Z,98605.44
2018-09-12T09:36:37.977Z,98604.89
2018-09-12T09:39:11.328Z,98603.97
2018-09-12T09:41:43.601Z,98600.00
2018-09-12T09:44:15.886Z,98589.04
2018-09-12T09:46:48.206Z,98588.05
2018-09-12T09:49:20.566Z,98588.99
2018-09-12T09:51:52.876Z,98591.55
2018-09-12T09:54:25.128Z,98587.61
2018-09-12T09:56:57.434Z,98581.86
2018-09-12T09:59:29.818Z,98584.50
2018-09-12T10:02:07.713Z,98592.81
2018-09-12T10:04:45.820Z,98579.61
2018-09-12T10:07:23.738Z,98583.11
2018-09-12T10:10:03.539Z,98580.91
2018-09-12T10:12:36.247Z,98583.11
2018-09-12T10:15:08.643Z,98578.60
2018-09-12T10:17:41.002Z,98573.78
2018-09-12T10:20:13.259Z,98568.92
2018-09-12T10:22:45.572Z,98576.74
2018-09-12T10:25:17.881Z,98572.05
2018-09-12T10:27:50.148Z,98573.33
2018-09-12T10:30:22.441Z,98570.55
2018-09-12T10:32:54.741Z,98568.74
2018-09-12T10:35:27.003Z,98563.95
2018-09-12T10:37:59.274Z,98563.50
2018-09-12T10:40:31.558Z,98565.27
2018-09-12T10:43:03.818Z,98557.88
2018-09-12T10:45:36.114Z,98552.08
2018-09-12T10:48:08.435Z,98556.42
2018-09-12T10:50:40.726Z,98559.09
2018-09-12T10:53:12.981Z,98552.98
2018-09-12T10:55:45.268Z,98551.67
2018-09-12T10:58:17.573Z,98547.16
2018-09-12T11:00:49.828Z,98548.90
2018-09-12T11:03:22.168Z,98544.00
2018-09-12T11:05:54.481Z,98548.38
2018-09-12T11:08:26.781Z,98541.50
2018-09-12T11:10:59.080Z,98532.76
2018-09-12T11:13:31.418Z,98532.44
2018-09-12T11:16:03.712Z,98528.42
2018-09-12T11:18:36.058Z,98525.68
2018-09-12T11:21:08.375Z,98529.29
2018-09-12T11:23:40.681Z,98518.25
2018-09-12T11:26:13.067Z,98525.27
2018-09-12T11:28:45.423Z,98515.03
2018-09-12T11:31:17.736Z,98509.45
2018-09-12T11:33:50.080Z,98501.56
2018-09-12T11:36:22.451Z,98511.98
2018-09-12T11:38:54.785Z,98508.66
2018-09-12T11:41:27.099Z,98512.77
2018-09-12T11:43:59.474Z,98506.59
2018-09-12T11:46:31.796Z,98504.81
2018-09-12T11:49:05.091Z,98506.47
2018-09-12T11:51:37.361Z,98505.19
2018-09-12T11:54:09.674Z,98500.90
2018-09-12T11:56:41.969Z,98502.63
2018-09-12T11:59:14.329Z,98500.45
2018-09-12T12:01:46.904Z,98499.17
2018-09-12T12:04:19.233Z,98489.63
2018-09-12T12:06:51.587Z,98480.51
2018-09-12T12:09:23.869Z,98482.89
2018-09-12T12:11:56.197Z,98478.52
2018-09-12T12:14:28.634Z,98476.73
2018-09-12T12:17:01.102Z,98470.52
2018-09-12T12:19:33.410Z,98471.02
2018-09-12T12:22:05.723Z,98468.37
2018-09-12T12:24:37.993Z,98469.98
2018-09-12T12:27:10.346Z,98460.30
2018-09-12T12:29:42.636Z,98459.39
2018-09-12T12:32:15.152Z,98446.41
2018-09-12T12:34:47.466Z,98451.39
2018-09-12T12:37:20.002Z,98443.02
2018-09-12T12:39:52.265Z,98439.23
2018-09-12T12:42:24.582Z,98432.27
2018-09-12T12:44:56.905Z,98427.36
2018-09-12T12:47:29.195Z,98424.73
2018-09-12T12:50:01.516Z,98420.73
2018-09-12T12:52:33.871Z,98409.67
2018-09-12T12:55:06.244Z,98411.22
2018-09-12T12:57:38.602Z,98398.98
2018-09-12T13:00:10.916Z,98397.07
2018-09-12T13:02:43.309Z,98396.28
2018-09-12T13:05:15.663Z,98394.47
2018-09-12T13:07:48.001Z,98397.48
2018-09-12T13:10:20.264Z,98391.75
2018-09-12T13:12:52.579Z,98390.48
2018-09-12T13:15:24.905Z,98390.28
2018-09-12T13:17:57.232Z,98389.88
2018-09-12T13:20:29.629Z,98385.60
2018-09-12T13:23:02.025Z,98383.88
2018-09-12T13:25:34.307Z,98381.66
2018-09-12T13:28:06.647Z,98379.20
2018-09-12T13:30:38.998Z,98379.02
2018-09-12T13:33:11.293Z,98373.69
2018-09-12T13:35:43.636Z,98366.33
2018-09-12T13:38:15.931Z,98359.83
2018-09-12T13:40:48.248Z,98366.38
2018-09-12T13:43:20.556Z,98352.27
2018-09-12T13:45:52.859Z,98346.13
2018-09-12T13:48:25.194Z,98343.66
2018-09-12T13:50:57.537Z,98343.16
2018-09-12T13:53:29.828Z,98341.63
2018-09-12T13:56:02.163Z,98342.17
2018-09-12T13:58:34.517Z,98340.88
2018-09-12T14:01:06.932Z,98332.80
2018-09-12T14:03:39.214Z,98338.08
2018-09-12T14:06:11.571Z,98327.67
2018-09-12T14:08:43.943Z,98331.08
2018-09-12T14:11:16.269Z,98326.75
2018-09-12T14:13:48.623Z,98322.84
2018-09-12T14:16:20.960Z,98321.48
2018-09-12T14:18:53.301Z,98318.28
2018-09-12T14:21:25.762Z,98314.38
2018-09-12T14:23:58.121Z,98314.95
2018-09-12T14:26:30.447Z,98307.53
2018-09-12T14:29:02.747Z,98307.53
2018-09-12T14:31:35.138Z,98308.00
2018-09-12T14:34:07.542Z,98298.86
2018-09-12T14:36:39.910Z,98303.44
2018-09-12T14:39:12.399Z,98296.04
2018-09-12T14:41:44.698Z,98293.41
2018-09-12T14:44:16.997Z,98297.77
2018-09-12T14:46:49.388Z,98288.34
2018-09-12T14:49:21.724Z,98282.76
2018-09-12T14:51:54.083Z,98272.53
2018-09-12T14:54:26.377Z,98271.36
2018-09-12T14:56:58.733Z,98264.30
2018-09-12T14:59:31.077Z,98273.59
2018-09-12T15:02:03.442Z,98275.44
2018-09-12T15:04:35.825Z,98271.85
2018-09-12T15:07:08.158Z,98272.27
2018-09-12T15:09:40.548Z,98263.53
2018-09-12T15:12:13.004Z,98272.86
2018-09-12T15:14:45.309Z,98273.44
2018-09-12T15:17:17.659Z,98272.17
2018-09-12T15:19:49.987Z,98272.17
2018-09-12T15:22:22.377Z,98267.36
2018-09-12T15:24:54.702Z,98266.03
2018-09-12T15:27:27.061Z,98261.58
2018-09-12T15:29:59.390Z,98261.54
2018-09-12T15:32:31.849Z,98260.59
2018-09-12T15:35:04.175Z,98257.45
2018-09-12T15:37:36.530Z,98254.41
2018-09-12T15:40:08.830Z,98251.72
2018-09-12T15:42:41.194Z,98251.36
2018-09-12T15:45:13.521Z,98246.50
2018-09-12T15:47:45.878Z,98240.49
2018-09-12T15:50:18.258Z,98242.17
2018-09-12T15:52:50.738Z,98245.31
2018-09-12T15:55:23.137Z,98242.77
2018-09-12T15:57:55.577Z,98242.91
2018-09-12T16:00:28.553Z,98246.94
2018-09-12T16:03:00.905Z,98239.12
2018-09-12T16:05:33.284Z,98233.52
2018-09-12T16:08:05.602Z,98233.18
2018-09-12T16:10:37.917Z,98222.31
2018-09-12T16:13:10.225Z,98227.16
2018-09-12T16:15:42.562Z,98218.05
2018-09-12T16:18:14.874Z,98209.37
2018-09-12T16:20:47.246Z,98209.92
2018-09-12T16:23:19.551Z,98209.60
2018-09-12T16:25:51.865Z,98212.74
2018-09-12T16:28:24.179Z,98207.12
2018-09-12T16:30:56.564Z,98205.41
2018-09-12T16:33:28.870Z,98207.26
2018-09-12T16:36:01.249Z,98210.39
2018-09-12T16:38:33.565Z,98204.73
2018-09-12T16:41:06.029Z,98208.28
2018-09-12T16:43:38.403Z,98208.78
2018-09-12T16:46:10.748Z,98211.52
2018-09-12T16:48:43.092Z,98214.17
2018-09-12T16:51:15.660Z,98212.92
2018-09-12T16:53:48.045Z,98216.44
2018-09-12T16:56:20.439Z,98223.05
2018-09-12T16:58:52.817Z,98225.70
2018-09-12T17:01:25.183Z,98219.17
2018-09-12T17:03:57.512Z,98218.75
2018-09-12T17:06:29.874Z,98216.62
2018-09-12T17:09:02.247Z,98221.86
2018-09-12T17:11:34.565Z,98216.65
2018-09-12T17:14:07.024Z,98222.78
2018-09-12T17:16:39.360Z,98224.13
2018-09-12T17:19:11.716Z,98225.04
2018-09-12T17:21:44.025Z,98225.93
2018-09-12T17:24:16.354Z,98225.01
2018-09-12T17:26:48.675Z,98229.82
2018-09-12T17:29:21.015Z,98227.20
2018-09-12T17:31:53.361Z,98228.92
2018-09-12T17:34:25.728Z,98232.87
2018-09-12T17:36:58.038Z,98228.05
2018-09-12T17:39:30.433Z,98227.96
2018-09-12T17:42:02.773Z,98225.74
2018-09-12T17:44:35.066Z,98225.30
2018-09-12T17:47:07.458Z,98225.27
2018-09-12T17:49:39.824Z,98230.86
2018-09-12T17:52:12.203Z,98235.20
2018-09-12T17:54:44.621Z,98239.97
2018-09-12T17:57:16.985Z,98225.87
2018-09-12T17:59:49.390Z,98232.39
2018-09-12T18:02:21.724Z,98232.34
2018-09-12T18:04:54.102Z,98238.38
2018-09-12T18:07:26.485Z,98236.58
2018-09-12T18:09:58.864Z,98240.00
2018-09-12T18:12:31.190Z,98240.37
2018-09-12T18:15:03.943Z,98243.76
2018-09-12T18:17:36.335Z,98254.58
2018-09-12T18:20:08.731Z,98256.24
2018-09-12T18:22:41.058Z,98253.11
2018-09-12T18:25:13.428Z,98257.77
2018-09-12T18:27:45.855Z,98267.72
2018-09-12T18:30:18.375Z,98271.08
2018-09-12T18:32:50.755Z,98275.37
2018-09-12T18:35:23.182Z,98272.16
2018-09-12T18:37:55.562Z,98280.79
2018-09-12T18:40:27.937Z,98278.52
2018-09-12T18:43:00.369Z,98288.84
2018-09-12T18:45:32.673Z,98281.34
2018-09-12T18:48:05.294Z,98286.05
2018-09-12T18:50:37.654Z,98284.67
2018-09-12T18:53:10.051Z,98277.98
2018-09-12T18:55:42.415Z,98277.39
2018-09-12T18:58:14.787Z,98281.66
2018-09-12T19:00:47.119Z,98276.44
2018-09-12T19:03:19.529Z,98280.63
2018-09-12T19:05:51.931Z,98277.50
2018-09-12T19:08:24.306Z,98279.14
2018-09-12T19:10:57.576Z,98275.97
2018-09-12T19:13:29.918Z,98270.33
2018-09-12T19:16:02.321Z,98276.27
2018-09-12T19:18:34.718Z,98276.27
2018-09-12T19:21:07.163Z,98279.66
2018-09-12T19:23:39.557Z,98280.42
2018-09-12T19:26:11.924Z,98278.06
2018-09-12T19:28:44.309Z,98274.06
2018-09-12T19:31:16.677Z,98273.57
2018-09-12T19:33:56.041Z,98267.88
2018-09-12T19:36:28.476Z,98272.47
2018-09-12T19:39:00.846Z,98274.48
2018-09-12T19:41:33.190Z,98266.56
2018-09-12T19:44:05.816Z,98274.27
2018-09-12T19:46:38.166Z,98276.33
2018-09-12T19:49:10.485Z,98269.68
2018-09-12T19:51:42.889Z,98269.63
2018-09-12T19:54:15.281Z,98276.06
2018-09-12T19:56:48.105Z,98281.10
2018-09-12T19:59:20.440Z,98284.45
2018-09-12T20:01:52.812Z,98286.14
2018-09-12T20:04:25.191Z,98287.55
2018-09-12T20:06:57.574Z,98293.73
2018-09-12T20:09:29.941Z,98293.55
2018-09-12T20:12:02.315Z,98298.97
2018-09-12T20:14:34.699Z,98285.03
2018-09-12T20:17:07.104Z,98285.19
2018-09-12T20:19:39.525Z,98278.99
2018-09-12T20:22:11.877Z,98284.94
2018-09-12T20:24:44.332Z,98278.37
2018-09-12T20:27:16.662Z,98273.49
2018-09-12T20:29:49.019Z,98282.95
2018-09-12T20:32:21.336Z,98284.92
2018-09-12T20:34:53.652Z,98288.28
2018-09-12T20:37:25.989Z,98291.80
2018-09-12T20:39:58.291Z,98294.42
2018-09-12T20:42:30.680Z,98289.83
2018-09-12T20:45:03.058Z,98286.78
2018-09-12T20:47:35.417Z,98281.03
2018-09-12T20:50:07.762Z,98282.27
2018-09-12T20:52:40.057Z,98275.33
2018-09-12T20:55:12.407Z,98275.82
2018-09-12T20:57:44.719Z,98278.61
2018-09-12T21:00:17.032Z,98283.73
2018-09-12T21:02:49.394Z,98285.91
2018-09-12T21:05:21.761Z,98294.22
2018-09-12T21:07:54.125Z,98307.19
2018-09-12T21:10:26.507Z,98340.55
2018-09-12T21:12:58.872Z,98357.07
2018-09-12T21:15:31.252Z,98351.25
2018-09-12T21:18:03.707Z,98358.42
2018-09-12T21:20:36.040Z,98360.65
2018-09-12T21:23:08.392Z,98366.14
2018-09-12T21:25:40.650Z,98377.97
2018-09-12T21:28:13.005Z,98375.37
2018-09-12T21:30:45.259Z,98386.69
2018-09-12T21:33:17.669Z,98381.02
2018-09-12T21:35:49.940Z,98389.38
2018-09-12T21:38:22.300Z,98393.28
2018-09-12T21:40:54.668Z,98394.05
2018-09-12T21:43:26.992Z,98401.80
2018-09-12T21:45:59.353Z,98393.84
2018-09-12T21:48:31.614Z,98387.72
2018-09-12T21:51:04.371Z,98382.81
2018-09-12T21:53:36.864Z,98375.98
2018-09-12T21:56:09.200Z,98368.96
2018-09-12T21:58:41.553Z,98371.58
2018-09-12T22:01:13.964Z,98357.33
2018-09-12T22:03:46.350Z,98352.58
2018-09-12T22:06:18.897Z,98345.45
2018-09-12T22:08:51.213Z,98336.56
2018-09-12T22:11:23.517Z,98345.08
2018-09-12T22:13:55.808Z,98334.94
2018-09-12T22:16:28.089Z,98324.69
2018-09-12T22:19:00.531Z,98304.95
2018-09-12T22:21:32.877Z,98303.92
2018-09-12T22:24:05.114Z,98322.06
2018-09-12T22:26:37.433Z,98321.58
2018-09-12T22:29:09.753Z,98323.75
2018-09-12T22:31:42.032Z,98315.94
2018-09-12T22:34:14.301Z,98312.69
2018-09-12T22:36:46.585Z,98318.18
2018-09-12T22:39:18.855Z,98313.12
2018-09-12T22:41:51.195Z,98301.87
2018-09-12T22:44:23.420Z,98299.61
2018-09-12T22:46:55.688Z,98299.45
2018-09-12T22:49:27.983Z,98291.13
2018-09-12T22:52:00.268Z,98288.54
2018-09-12T22:54:32.624Z,98290.96
2018-09-12T22:57:04.956Z,98285.27
2018-09-12T22:59:37.221Z,98284.00
2018-09-12T23:02:09.544Z,98289.27
2018-09-12T23:04:41.897Z,98294.97
2018-09-12T23:07:14.197Z,98297.22
2018-09-12T23:09:46.484Z,98297.22
2018-09-12T23:12:18.753Z,98297.42
2018-09-12T23:14:51.089Z,98293.22
2018-09-12T23:17:23.351Z,98286.03
2018-09-12T23:19:55.660Z,98286.59
2018-09-12T23:22:27.924Z,98286.08
2018-09-12T23:25:00.325Z,98282.70
2018-09-12T23:27:32.585Z,98277.43
2018-09-12T23:30:05.060Z,98271.31
2018-09-12T23:32:37.393Z,98261.79
2018-09-12T23:35:09.678Z,98259.02
2018-09-12T23:37:42.018Z,98255.98
2018-09-12T23:40:14.320Z,98254.45
2018-09-12T23:42:46.617Z,98250.75
2018-09-12T23:45:18.911Z,98246.86
2018-09-12T23:47:51.169Z,98241.95
2018-09-12T23:50:23.441Z,98244.88
2018-09-12T23:52:55.716Z,98243.55
2018-09-12T23:55:28.108Z,98247.44
2018-09-12T23:58:00.372Z,98242.95
